createdAt,value
2023-03-26T00:02:23.276Z,979
2023-03-26T00:04:24.916Z,978.8
2023-03-26T00:08:27.728Z,979
2023-03-26T00:10:29.307Z,978.9
2023-03-26T00:14:32.360Z,979
2023-03-26T00:18:35.635Z,978.9
2023-03-26T00:20:45.029Z,978.9
2023-03-26T00:24:39.420Z,978.9
2023-03-26T00:28:41.729Z,978.9
2023-03-26T00:30:42.809Z,978.9
2023-03-26T00:34:45.908Z,979
2023-03-26T00:36:47.524Z,978.8
2023-03-26T00:38:48.947Z,978.9
2023-03-26T00:40:50.486Z,978.9
2023-03-26T00:44:53.666Z,978.8
2023-03-26T00:46:55.291Z,978.9
2023-03-26T00:50:58.315Z,978.9
2023-03-26T00:52:59.796Z,978.9
2023-03-26T00:57:02.226Z,978.7
2023-03-26T01:01:04.399Z,978.7
2023-03-26T01:03:05.543Z,978.7
2023-03-26T01:07:08.968Z,978.6
2023-03-26T01:11:12.626Z,978.8
2023-03-26T01:13:13.826Z,978.7
2023-03-26T01:17:16.562Z,978.6
2023-03-26T01:19:17.834Z,978.6
2023-03-26T01:23:20.011Z,978.6
2023-03-26T01:27:22.963Z,978.5
2023-03-26T01:29:24.832Z,978.5
2023-03-26T01:33:27.622Z,978.5
2023-03-26T01:35:28.839Z,978.5
2023-03-26T01:39:31.471Z,978.4
2023-03-26T01:44:18.817Z,978.4
2023-03-26T01:46:20.351Z,978.2
2023-03-26T01:50:23.648Z,978.1
2023-03-26T01:54:25.834Z,978
2023-03-26T01:56:27.354Z,978.1
2023-03-26T02:00:29.954Z,978.1
2023-03-26T02:04:32.532Z,978
2023-03-26T02:06:33.892Z,978
2023-03-26T02:10:36.748Z,978
2023-03-26T02:12:38.103Z,978
2023-03-26T02:16:40.352Z,978
2023-03-26T02:20:43.015Z,977.9
2023-03-26T02:22:44.121Z,977.8
2023-03-26T02:26:47.314Z,977.8
2023-03-26T02:28:48.471Z,977.7
2023-03-26T02:32:51.763Z,977.7
2023-03-26T02:36:55.107Z,977.7
2023-03-26T02:38:57.008Z,977.8
2023-03-26T02:42:59.436Z,977.7
2023-03-26T02:47:01.918Z,977.5
2023-03-26T02:49:03.216Z,977.6
2023-03-26T02:53:05.948Z,977.5
2023-03-26T02:55:07.261Z,977.4
2023-03-26T02:57:08.479Z,977.4
2023-03-26T02:59:10.316Z,977.3
2023-03-26T03:03:13.324Z,977.3
2023-03-26T03:05:14.589Z,977.1
2023-03-26T03:07:16.498Z,977.2
2023-03-26T03:09:18.418Z,977.1
2023-03-26T03:11:19.296Z,977.1
2023-03-26T03:15:22.521Z,977
2023-03-26T03:17:23.580Z,977.1
2023-03-26T03:19:24.939Z,977.1
2023-03-26T03:21:33.997Z,977.2
2023-03-26T03:25:28.933Z,977.1
2023-03-26T03:27:30.812Z,977.1
2023-03-26T03:31:33.939Z,977.1
2023-03-26T03:35:38.276Z,977.1
2023-03-26T03:37:37.906Z,977
2023-03-26T03:41:40.821Z,977.1
2023-03-26T03:45:44.208Z,977.1
2023-03-26T03:47:46.070Z,977.1
2023-03-26T03:51:48.840Z,977.1
2023-03-26T03:53:50.311Z,977
2023-03-26T03:57:53.743Z,977
2023-03-26T04:01:57.003Z,977
2023-03-26T04:03:58.161Z,977
2023-03-26T04:08:01.311Z,977
2023-03-26T04:10:02.602Z,976.9
2023-03-26T04:14:05.571Z,976.8
2023-03-26T04:18:07.801Z,976.9
2023-03-26T04:20:09.025Z,976.8
2023-03-26T04:24:13.028Z,976.8
2023-03-26T04:28:14.471Z,976.7
2023-03-26T04:30:15.687Z,976.7
2023-03-26T04:34:19.067Z,976.7
2023-03-26T04:36:20.546Z,976.7
2023-03-26T04:40:22.634Z,976.6
2023-03-26T04:44:25.092Z,976.5
2023-03-26T04:46:26.098Z,976.4
2023-03-26T04:50:29.323Z,976.2
2023-03-26T04:52:30.404Z,976.2
2023-03-26T04:56:33.294Z,976.1
2023-03-26T05:00:36.213Z,976.1
2023-03-26T05:02:37.243Z,976
2023-03-26T05:06:40.129Z,976
2023-03-26T05:10:42.599Z,975.9
2023-03-26T05:12:43.988Z,975.8
2023-03-26T05:16:47.176Z,975.8
2023-03-26T05:18:48.513Z,975.8
2023-03-26T05:20:49.578Z,975.8
2023-03-26T05:22:51.000Z,975.7
2023-03-26T05:26:54.032Z,975.6
2023-03-26T05:28:55.802Z,975.4
2023-03-26T05:30:57.483Z,975.4
2023-03-26T05:32:58.971Z,975.3
2023-03-26T05:35:00.248Z,975.3
2023-03-26T05:39:02.493Z,975.2
2023-03-26T05:41:04.082Z,975.2
2023-03-26T05:43:05.595Z,975.2
2023-03-26T05:45:06.760Z,975.2
2023-03-26T05:49:09.184Z,975.1
2023-03-26T05:51:10.146Z,974.9
2023-03-26T05:55:12.692Z,974.9
2023-03-26T05:59:15.137Z,974.9
2023-03-26T06:01:16.601Z,974.9
2023-03-26T06:05:20.174Z,974.8
2023-03-26T06:09:23.311Z,974.7
2023-03-26T06:11:24.833Z,974.7
2023-03-26T06:15:28.356Z,974.7
2023-03-26T06:17:29.416Z,974.6
2023-03-26T06:21:32.044Z,974.7
2023-03-26T06:25:44.859Z,974.6
2023-03-26T06:27:37.336Z,974.7
2023-03-26T06:31:40.270Z,974.6
2023-03-26T06:33:41.784Z,974.6
2023-03-26T06:37:44.856Z,974.7
2023-03-26T06:41:47.910Z,974.4
2023-03-26T06:43:49.591Z,974.5
2023-03-26T06:47:52.486Z,974.5
2023-03-26T06:51:56.512Z,974.4
2023-03-26T06:53:57.774Z,974.4
2023-03-26T06:57:59.939Z,974.1
2023-03-26T07:00:01.514Z,974.2
2023-03-26T07:04:04.872Z,974.2
2023-03-26T07:08:07.476Z,974.1
2023-03-26T07:10:08.634Z,974.2
2023-03-26T07:14:11.585Z,974.1
2023-03-26T07:16:12.579Z,974
2023-03-26T07:20:15.410Z,974
2023-03-26T07:24:18.725Z,974.1
2023-03-26T07:26:20.095Z,974
2023-03-26T07:30:22.648Z,974
2023-03-26T07:34:25.703Z,973.9
2023-03-26T07:36:27.052Z,973.9
2023-03-26T07:40:29.768Z,973.7
2023-03-26T07:42:31.022Z,973.7
2023-03-26T07:46:34.409Z,973.7
2023-03-26T07:50:38.119Z,973.4
2023-03-26T07:52:38.864Z,973.6
2023-03-26T07:56:41.049Z,973.5
2023-03-26T07:58:42.669Z,973.5
2023-03-26T08:02:46.329Z,973.3
2023-03-26T08:06:49.746Z,973.3
2023-03-26T08:08:51.250Z,973.3
2023-03-26T08:12:54.570Z,973.2
2023-03-26T08:16:57.432Z,973.1
2023-03-26T08:18:59.288Z,973.1
2023-03-26T08:23:02.754Z,973.1
2023-03-26T08:25:03.880Z,973.1
2023-03-26T08:27:49.175Z,973
2023-03-26T08:29:51.044Z,973
2023-03-26T08:33:53.886Z,972.9
2023-03-26T08:35:55.072Z,973
2023-03-26T08:39:57.682Z,972.9
2023-03-26T08:41:58.603Z,972.9
2023-03-26T08:43:59.566Z,972.8
2023-03-26T08:46:01.154Z,972.9
2023-03-26T08:50:03.380Z,972.8
2023-03-26T08:52:05.234Z,972.8
2023-03-26T08:56:07.925Z,972.8
2023-03-26T09:00:11.398Z,972.7
2023-03-26T09:02:13.128Z,972.8
2023-03-26T09:06:16.026Z,972.7
2023-03-26T09:10:19.105Z,972.7
2023-03-26T09:12:20.731Z,972.9
2023-03-26T09:14:22.458Z,972.9
2023-03-26T09:16:24.271Z,972.8
2023-03-26T09:18:25.890Z,972.8
2023-03-26T09:22:28.936Z,972.7
2023-03-26T09:24:30.737Z,972.7
2023-03-26T09:26:32.276Z,972.6
2023-03-26T09:28:33.277Z,972.7
2023-03-26T09:32:36.056Z,972.5
2023-03-26T09:34:36.985Z,972.6
2023-03-26T09:38:40.158Z,972.5
2023-03-26T09:42:42.781Z,972.6
2023-03-26T09:44:44.779Z,972.6
2023-03-26T09:48:47.761Z,972.6
2023-03-26T09:52:50.679Z,972.5
2023-03-26T09:54:51.640Z,972.6
2023-03-26T09:58:53.873Z,972.5
2023-03-26T10:00:55.205Z,972.5
2023-03-26T10:04:57.983Z,972.3
2023-03-26T10:09:01.031Z,972.3
2023-03-26T10:11:02.192Z,972.3
2023-03-26T10:15:04.797Z,972.4
2023-03-26T10:17:06.381Z,972.3
2023-03-26T10:19:16.422Z,972.3
2023-03-26T10:21:08.943Z,972.3
2023-03-26T10:25:11.725Z,972.2
2023-03-26T10:27:12.915Z,972.2
2023-03-26T10:31:15.773Z,972.2
2023-03-26T10:35:18.680Z,972.3
2023-03-26T10:37:20.065Z,972.2
2023-03-26T10:41:23.645Z,972.2
2023-03-26T10:43:24.706Z,972.3
2023-03-26T10:47:27.892Z,972.3
2023-03-26T10:51:31.059Z,972.4
2023-03-26T10:53:32.640Z,972.3
2023-03-26T10:57:35.137Z,972.3
2023-03-26T10:59:36.920Z,972.1
2023-03-26T11:03:40.180Z,972.4
2023-03-26T11:07:42.919Z,972.3
2023-03-26T11:09:44.620Z,972.3
2023-03-26T11:13:47.616Z,972.2
2023-03-26T11:17:50.190Z,972.2
2023-03-26T11:19:53.051Z,972.1
2023-03-26T11:24:04.561Z,972
2023-03-26T11:25:56.318Z,971.9
2023-03-26T11:27:57.559Z,972
2023-03-26T11:29:59.029Z,971.8
2023-03-26T11:34:02.619Z,971.8
2023-03-26T11:36:03.806Z,971.8
2023-03-26T11:38:05.527Z,971.6
2023-03-26T11:40:07.141Z,971.6
2023-03-26T11:42:08.073Z,971.7
2023-03-26T11:46:10.934Z,971.6
2023-03-26T11:48:12.563Z,971.5
2023-03-26T11:50:13.751Z,971.5
2023-03-26T11:52:15.451Z,971.5
2023-03-26T11:56:18.053Z,971.5
2023-03-26T11:58:19.161Z,971.3
2023-03-26T12:02:21.175Z,971.3
2023-03-26T12:06:24.306Z,971.1
2023-03-26T12:08:25.608Z,971.2
2023-03-26T12:12:28.275Z,971.1
2023-03-26T12:16:31.083Z,970.8
2023-03-26T12:18:32.496Z,970.9
2023-03-26T12:22:35.205Z,970.8
2023-03-26T12:24:36.790Z,970.9
2023-03-26T12:28:41.014Z,971.1
2023-03-26T12:32:46.614Z,971.3
2023-03-26T12:34:45.525Z,971.3
2023-03-26T12:39:15.920Z,971.2
2023-03-26T12:40:50.381Z,971.2
2023-03-26T12:44:58.704Z,971.2
2023-03-26T12:48:54.771Z,971
2023-03-26T12:50:55.935Z,971.1
2023-03-26T12:54:58.173Z,970.9
2023-03-26T12:59:01.426Z,971.1
2023-03-26T13:01:03.048Z,970.8
2023-03-26T13:03:12.271Z,970.9
2023-03-26T13:05:06.940Z,970.8
2023-03-26T13:07:07.084Z,970.8
2023-03-26T13:11:09.830Z,970.8
2023-03-26T13:15:12.210Z,970.7
2023-03-26T13:17:13.658Z,970.6
2023-03-26T13:21:16.706Z,970.6
2023-03-26T13:23:17.992Z,970.4
2023-03-26T13:27:20.410Z,970.5
2023-03-26T13:31:23.063Z,970.4
2023-03-26T13:33:24.482Z,970.4
2023-03-26T13:37:27.428Z,970.5
2023-03-26T13:41:30.917Z,970.4
2023-03-26T13:43:31.881Z,970.3
2023-03-26T13:47:34.982Z,970.2
2023-03-26T13:49:35.831Z,970.2
2023-03-26T13:51:37.587Z,970.3
2023-03-26T13:53:38.888Z,970.4
2023-03-26T13:57:41.952Z,970.3
2023-03-26T13:59:43.714Z,970.2
2023-03-26T14:03:46.850Z,970.1
2023-03-26T14:05:48.279Z,970.2
2023-03-26T14:09:51.076Z,970.1
2023-03-26T14:13:54.421Z,970
2023-03-26T14:15:55.404Z,969.8
2023-03-26T14:20:07.252Z,969.9
2023-03-26T14:26:02.908Z,969.8
2023-03-26T14:30:05.442Z,969.8
2023-03-26T14:32:06.569Z,969.9
2023-03-26T14:34:08.164Z,969.9
2023-03-26T14:36:09.408Z,969.8
2023-03-26T14:40:11.347Z,969.9
2023-03-26T14:42:13.038Z,970
2023-03-26T14:46:15.149Z,970
2023-03-26T14:48:16.756Z,970
2023-03-26T14:52:18.500Z,970.1
2023-03-26T14:56:20.619Z,970
2023-03-26T14:58:22.491Z,970
2023-03-26T15:02:26.124Z,969.9
2023-03-26T15:04:27.605Z,969.8
2023-03-26T15:08:33.436Z,970
2023-03-26T15:11:25.168Z,969.9
2023-03-26T15:13:17.768Z,970
2023-03-26T15:17:21.078Z,969.9
2023-03-26T15:19:22.035Z,970
2023-03-26T15:23:24.818Z,969.9
2023-03-26T15:25:25.888Z,970
2023-03-26T15:29:28.349Z,970
2023-03-26T15:31:29.634Z,970
2023-03-26T15:35:32.382Z,969.9
2023-03-26T15:39:34.758Z,970
2023-03-26T15:41:36.346Z,969.9
2023-03-26T15:45:38.629Z,969.9
2023-03-26T15:49:41.666Z,969.9
2023-03-26T15:51:46.616Z,970
2023-03-26T15:55:46.647Z,970
2023-03-26T15:57:47.948Z,969.9
2023-03-26T16:01:50.760Z,969.9
2023-03-26T16:05:53.662Z,970.3
2023-03-26T16:07:54.939Z,970.2
2023-03-26T16:11:57.664Z,970.3
2023-03-26T16:13:59.459Z,970.2
2023-03-26T16:18:02.578Z,970.3
2023-03-26T16:22:05.495Z,970.2
2023-03-26T16:24:06.880Z,970.3
2023-03-26T16:28:09.710Z,970.2
2023-03-26T16:32:12.303Z,970.2
2023-03-26T16:34:13.665Z,970.3
2023-03-26T16:38:17.140Z,970.3
2023-03-26T16:40:18.519Z,970.2
2023-03-26T16:44:22.200Z,970.5
2023-03-26T16:48:24.314Z,970.5
2023-03-26T16:50:25.627Z,970.6
2023-03-26T16:54:28.094Z,970.7
2023-03-26T16:56:29.156Z,970.8
2023-03-26T17:00:32.359Z,971.1
2023-03-26T17:04:36.144Z,971
2023-03-26T17:06:37.298Z,971
2023-03-26T17:10:40.526Z,971.1
2023-03-26T17:14:42.734Z,971.2
2023-03-26T17:16:44.177Z,971.2
2023-03-26T17:20:47.832Z,971.3
2023-03-26T17:22:49.717Z,971.3
2023-03-26T17:24:51.076Z,971.4
2023-03-26T17:26:52.566Z,971.4
2023-03-26T17:30:56.055Z,971.3
2023-03-26T17:32:57.687Z,971.3
2023-03-26T17:34:59.033Z,971.3
2023-03-26T17:36:59.978Z,971.3
2023-03-26T17:39:01.790Z,971.2
2023-03-26T17:43:05.321Z,971.4
2023-03-26T17:47:08.611Z,971.3
2023-03-26T17:49:10.075Z,971.4
2023-03-26T17:53:12.706Z,971.4
2023-03-26T17:55:13.937Z,971.4
2023-03-26T17:59:16.951Z,971.4
2023-03-26T18:03:20.020Z,971.5
2023-03-26T18:05:21.695Z,971.5
2023-03-26T18:09:23.902Z,971.5
2023-03-26T18:13:27.165Z,971.4
2023-03-26T18:15:29.095Z,971.5
2023-03-26T18:19:32.279Z,971.6
2023-03-26T18:21:33.984Z,971.5
2023-03-26T18:25:36.221Z,971.5
2023-03-26T18:29:39.649Z,971.5
2023-03-26T18:31:41.394Z,971.5
2023-03-26T18:35:44.789Z,971.5
2023-03-26T18:37:46.678Z,971.6
2023-03-26T18:41:49.773Z,971.4
2023-03-26T18:45:52.774Z,971.4
2023-03-26T18:47:54.583Z,971.4
2023-03-26T18:51:57.623Z,971.3
2023-03-26T18:56:00.500Z,971.3
2023-03-26T18:58:01.857Z,971.3
2023-03-26T19:02:04.362Z,971.3
2023-03-26T19:04:06.130Z,971.4
2023-03-26T19:08:09.104Z,971.5
2023-03-26T19:12:11.879Z,971.5
2023-03-26T19:14:14.671Z,971.5
2023-03-26T19:18:15.959Z,971.5
2023-03-26T19:20:17.174Z,971.4
2023-03-26T19:24:20.343Z,971.4
2023-03-26T19:28:23.375Z,971.5
2023-03-26T19:30:24.314Z,971.5
2023-03-26T19:34:27.099Z,971.4
2023-03-26T19:38:30.148Z,971.4
2023-03-26T19:40:31.152Z,971.4
2023-03-26T19:44:34.043Z,971.4
2023-03-26T19:46:53.095Z,971.4
2023-03-26T19:50:37.498Z,971.5
2023-03-26T19:54:39.884Z,971.5
2023-03-26T19:56:41.805Z,971.4
2023-03-26T20:00:44.080Z,971.4
2023-03-26T20:02:44.887Z,971.4
2023-03-26T20:06:47.355Z,971.4
2023-03-26T20:08:48.469Z,971.4
2023-03-26T20:10:49.763Z,971.4
2023-03-26T20:12:51.001Z,971.2
2023-03-26T20:16:53.995Z,971.3
2023-03-26T20:18:55.504Z,971.4
2023-03-26T20:22:58.402Z,971.4
2023-03-26T20:27:01.340Z,971.2
2023-03-26T20:29:03.478Z,971.4
2023-03-26T20:33:11.636Z,971.3
2023-03-26T20:37:07.931Z,971.4
2023-03-26T20:39:08.942Z,971.4
2023-03-26T20:43:11.696Z,971.3
2023-03-26T20:45:13.191Z,971.4
2023-03-26T20:49:15.778Z,971.2
2023-03-26T20:53:18.362Z,971.3
2023-03-26T20:55:19.811Z,971.2
2023-03-26T20:59:23.023Z,971.2
2023-03-26T21:01:24.697Z,971.1
2023-03-26T21:05:27.881Z,971.1
2023-03-26T21:09:30.605Z,971.2
2023-03-26T21:11:32.394Z,971.2
2023-03-26T21:15:35.541Z,971.3
2023-03-26T21:19:38.970Z,971.2
2023-03-26T21:21:40.090Z,971.2
2023-03-26T21:25:42.646Z,971.2
2023-03-26T21:27:43.876Z,971.1
2023-03-26T21:31:46.472Z,971.2
2023-03-26T21:35:49.420Z,971.2
2023-03-26T21:37:50.795Z,971.2
2023-03-26T21:42:04.643Z,971.2
2023-03-26T21:43:56.131Z,971.1
2023-03-26T21:47:59.169Z,971.3
2023-03-26T21:52:01.259Z,971.4
2023-03-26T21:54:02.357Z,971.4
2023-03-26T21:56:48.304Z,971.4
2023-03-26T21:58:49.334Z,971.4
2023-03-26T22:02:52.628Z,971.4
2023-03-26T22:04:54.255Z,971.5
2023-03-26T22:08:57.166Z,971.4
2023-03-26T22:13:00.298Z,971.5
2023-03-26T22:15:01.524Z,971.6
2023-03-26T22:19:04.691Z,971.6
2023-03-26T22:21:06.135Z,971.6
2023-03-26T22:25:08.794Z,971.6
2023-03-26T22:29:11.690Z,971.6
2023-03-26T22:31:12.931Z,971.7
2023-03-26T22:35:15.590Z,971.8
2023-03-26T22:39:18.770Z,971.8
2023-03-26T22:41:20.272Z,971.8
2023-03-26T22:45:23.036Z,971.8
2023-03-26T22:47:24.419Z,971.8
2023-03-26T22:49:25.423Z,971.9
2023-03-26T22:51:27.167Z,971.9
2023-03-26T22:55:30.169Z,971.9
2023-03-26T22:57:31.797Z,971.8
2023-03-26T22:59:33.335Z,971.9
2023-03-26T23:01:35.281Z,971.9
2023-03-26T23:03:36.293Z,971.9
2023-03-26T23:07:38.678Z,972
2023-03-26T23:09:39.992Z,972
2023-03-26T23:11:41.447Z,972
2023-03-26T23:13:42.693Z,972.1
2023-03-26T23:17:45.655Z,972.1
2023-03-26T23:23:50.432Z,972.3
2023-03-26T23:27:53.160Z,972.3
2023-03-26T23:29:54.196Z,972.4
2023-03-26T23:31:55.712Z,972.3
2023-03-26T23:33:57.005Z,972.4
2023-03-26T23:38:00.477Z,972.4
2023-03-26T23:40:01.507Z,972.5
2023-03-26T23:42:02.684Z,972.6
2023-03-26T23:44:03.958Z,972.6
2023-03-26T23:46:05.083Z,972.6
2023-03-26T23:50:08.322Z,972.7
2023-03-26T23:54:11.425Z,972.8
2023-03-26T23:56:13.314Z,972.8
